New Monmouth, New Jersey
Current Conditions -  °F | °C
As of 3:35 PM on Thursday 27 Nov 2014 (Local Time) from KBLM Reporting Station
Overcast Overcast  
Wind Chill: 30°   Ceiling: 2800
Heat Index: 37°   Visibility: 10mi
Dew Point: 27°   Wind: 12mph
Humidity: 65%   Direction: 290°WNW
Pressure: 29.99"   Gusts: NA
Location:  40.3908°N, 74.1116°W
Report Text: KBLM 272035Z AUTO 29010KT 10SM OVC028 03/M03 A2999 RMK AO1
Loading
Personal Weather Stations






























Interactive Weather Map New forecast layout! Learn more

10-Day Weather Forecast

Advertisements
Track Severe Weather on mobile